createdAt,value
2018-03-11T00:02:07.365Z,8.13
2018-03-11T00:04:34.826Z,8.10
2018-03-11T00:07:02.302Z,8.10
2018-03-11T00:09:30.523Z,7.90
2018-03-11T00:11:57.999Z,7.43
2018-03-11T00:14:25.471Z,8.03
2018-03-11T00:16:52.949Z,8.27
2018-03-11T00:19:21.174Z,8.47
2018-03-11T00:21:48.642Z,7.13
2018-03-11T00:24:28.879Z,7.53
2018-03-11T00:26:56.360Z,7.87
2018-03-11T00:29:23.843Z,8.00
2018-03-11T00:31:51.370Z,8.60
2018-03-11T00:34:18.823Z,8.10
2018-03-11T00:36:46.315Z,8.87
2018-03-11T00:39:14.256Z,7.87
2018-03-11T00:41:41.726Z,8.10
2018-03-11T00:44:09.197Z,7.80
2018-03-11T00:46:36.662Z,9.20
2018-03-11T00:49:04.128Z,7.50
2018-03-11T00:51:31.603Z,8.60
2018-03-11T00:53:59.848Z,9.20
2018-03-11T00:59:20.503Z,9.00
2018-03-11T01:01:48.746Z,9.07
2018-03-11T01:04:16.212Z,8.63
2018-03-11T01:06:43.696Z,9.30
2018-03-11T01:09:11.920Z,9.07
2018-03-11T01:11:39.403Z,10.37
2018-03-11T01:14:06.869Z,9.60
2018-03-11T01:16:34.348Z,9.97
2018-03-11T01:19:02.575Z,11.80
2018-03-11T01:21:30.062Z,11.50
2018-03-11T01:23:58.303Z,10.33
2018-03-11T01:26:25.785Z,10.17
2018-03-11T01:28:53.242Z,9.30
2018-03-11T01:31:20.722Z,14.80
2018-03-11T01:33:48.950Z,18.70
2018-03-11T01:36:16.436Z,17.67
2018-03-11T01:38:43.894Z,18.50
2018-03-11T01:41:11.379Z,16.60
2018-03-11T01:43:39.619Z,17.60
2018-03-11T01:46:07.126Z,16.17
2018-03-11T01:48:34.621Z,14.37
2018-03-11T01:51:02.103Z,14.13
2018-03-11T01:53:29.576Z,14.10
2018-03-11T01:55:57.054Z,14.50
2018-03-11T01:58:25.327Z,14.30
2018-03-11T02:00:53.543Z,13.57
2018-03-11T02:03:21.023Z,14.63
2018-03-11T02:05:48.497Z,13.17
2018-03-11T02:08:15.972Z,13.60
2018-03-11T02:10:44.226Z,13.73
2018-03-11T02:13:11.705Z,13.80
2018-03-11T02:15:39.961Z,11.90
2018-03-11T02:18:07.430Z,12.50
2018-03-11T02:20:34.899Z,13.13
2018-03-11T02:23:03.150Z,11.67
2018-03-11T02:25:30.630Z,13.20
2018-03-11T02:27:58.877Z,17.30
2018-03-11T02:30:26.349Z,17.03
2018-03-11T02:32:53.820Z,17.80
2018-03-11T02:35:22.055Z,16.60
2018-03-11T02:37:49.546Z,18.13
2018-03-11T02:40:17.012Z,17.90
2018-03-11T02:42:45.276Z,15.47
2018-03-11T02:45:12.755Z,16.23
2018-03-11T02:47:41.009Z,16.13
2018-03-11T02:50:08.483Z,16.40
2018-03-11T02:52:35.958Z,15.23
2018-03-11T02:55:04.191Z,15.47
2018-03-11T02:57:31.668Z,15.10
2018-03-11T02:59:59.954Z,14.70
2018-03-11T03:02:27.449Z,13.27
2018-03-11T03:04:54.918Z,14.83
2018-03-11T03:07:22.412Z,13.43
2018-03-11T03:09:49.875Z,13.30
2018-03-11T03:12:17.354Z,13.80
2018-03-11T03:14:46.411Z,13.97
2018-03-11T03:17:13.878Z,14.30
2018-03-11T03:19:41.365Z,11.80
2018-03-11T03:22:09.615Z,12.30
2018-03-11T03:24:38.603Z,12.53
2018-03-11T03:27:06.084Z,12.70
2018-03-11T03:29:33.546Z,12.93
2018-03-11T03:32:01.019Z,12.30
2018-03-11T03:34:29.276Z,12.00
2018-03-11T03:36:56.760Z,12.70
2018-03-11T03:39:25.004Z,13.33
2018-03-11T03:41:52.495Z,16.00
2018-03-11T03:44:20.736Z,13.10
2018-03-11T03:46:48.215Z,12.23
2018-03-11T03:49:16.502Z,11.77
2018-03-11T03:51:43.946Z,12.93
2018-03-11T03:54:12.198Z,10.80
2018-03-11T03:56:39.683Z,11.60
2018-03-11T03:59:07.524Z,11.77
2018-03-11T04:01:35.000Z,12.77
2018-03-11T04:04:02.468Z,12.40
2018-03-11T04:06:30.712Z,13.13
2018-03-11T04:08:58.190Z,12.70
2018-03-11T04:11:25.674Z,12.10
2018-03-11T04:13:53.911Z,12.40
2018-03-11T04:16:21.401Z,12.23
2018-03-11T04:18:49.642Z,12.60
2018-03-11T04:21:17.114Z,11.87
2018-03-11T04:23:44.604Z,11.43
2018-03-11T04:26:12.844Z,11.20
2018-03-11T04:28:40.331Z,13.23
2018-03-11T04:31:08.571Z,13.10
2018-03-11T04:33:36.055Z,13.80
2018-03-11T04:36:03.528Z,13.80
2018-03-11T04:38:31.771Z,15.83
2018-03-11T04:40:59.249Z,14.70
2018-03-11T04:43:26.735Z,12.80
2018-03-11T04:45:54.220Z,12.47
2018-03-11T04:48:21.700Z,13.73
2018-03-11T04:50:49.195Z,12.27
2018-03-11T04:53:17.454Z,12.87
2018-03-11T04:55:44.922Z,12.97
2018-03-11T04:58:12.399Z,12.63
2018-03-11T05:00:40.643Z,14.10
2018-03-11T05:03:08.132Z,13.10
2018-03-11T05:05:36.367Z,14.70
2018-03-11T05:08:05.361Z,13.23
2018-03-11T05:10:32.838Z,14.60
2018-03-11T05:13:00.322Z,13.90
2018-03-11T05:15:28.566Z,13.27
2018-03-11T05:17:56.048Z,14.00
2018-03-11T05:20:24.283Z,14.00
2018-03-11T05:22:51.763Z,13.93
2018-03-11T05:25:19.240Z,15.40
2018-03-11T05:27:48.279Z,14.23
2018-03-11T05:30:15.758Z,12.97
2018-03-11T05:32:43.239Z,13.63
2018-03-11T05:35:10.707Z,12.70
2018-03-11T05:37:38.958Z,11.73
2018-03-11T05:40:06.436Z,13.10
2018-03-11T05:42:33.916Z,12.40
2018-03-11T05:45:01.384Z,11.53
2018-03-11T05:47:28.873Z,12.30
2018-03-11T05:49:56.342Z,11.07
2018-03-11T05:52:23.827Z,11.33
2018-03-11T05:54:51.300Z,11.77
2018-03-11T05:57:19.542Z,9.70
2018-03-11T05:59:47.066Z,10.10
2018-03-11T06:02:14.534Z,8.80
2018-03-11T06:04:42.013Z,10.60
2018-03-11T06:07:09.488Z,10.20
2018-03-11T06:09:36.958Z,10.47
2018-03-11T06:12:05.216Z,9.30
2018-03-11T06:14:32.671Z,9.80
2018-03-11T06:17:00.179Z,9.10
2018-03-11T06:19:27.658Z,9.40
2018-03-11T06:21:55.145Z,9.97
2018-03-11T06:24:22.625Z,8.73
2018-03-11T06:26:50.086Z,7.67
2018-03-11T06:29:17.567Z,8.40
2018-03-11T06:31:45.796Z,9.87
2018-03-11T06:34:13.273Z,8.97
2018-03-11T06:36:40.747Z,8.20
2018-03-11T06:39:09.004Z,8.67
2018-03-11T06:41:36.463Z,9.30
2018-03-11T06:44:03.938Z,8.37
2018-03-11T06:46:32.173Z,8.47
2018-03-11T06:48:59.650Z,8.80
2018-03-11T06:51:27.114Z,8.87
2018-03-11T06:53:54.611Z,7.87
2018-03-11T06:56:22.081Z,8.57
2018-03-11T06:58:49.556Z,9.17
2018-03-11T07:01:17.033Z,7.07
2018-03-11T07:03:44.527Z,6.60
2018-03-11T07:06:12.763Z,9.00
2018-03-11T07:08:40.241Z,10.60
2018-03-11T07:11:07.707Z,12.10
2018-03-11T07:13:35.194Z,12.70
2018-03-11T07:16:02.675Z,13.37
2018-03-11T07:18:30.173Z,13.80
2018-03-11T07:20:57.640Z,13.97
2018-03-11T07:23:25.124Z,14.17
2018-03-11T07:25:52.602Z,14.23
2018-03-11T07:28:20.089Z,12.90
2018-03-11T07:30:47.553Z,14.33
2018-03-11T07:33:15.027Z,14.17
2018-03-11T07:35:42.503Z,13.70
2018-03-11T07:38:10.769Z,12.17
2018-03-11T07:40:39.256Z,11.10
2018-03-11T07:43:06.740Z,12.93
2018-03-11T07:45:34.968Z,10.40
2018-03-11T07:48:02.448Z,9.30
2018-03-11T07:50:29.908Z,7.17
2018-03-11T07:52:57.391Z,10.50
2018-03-11T07:55:24.856Z,8.43
2018-03-11T07:57:52.329Z,6.20
2018-03-11T08:00:19.793Z,6.93
2018-03-11T08:02:47.268Z,6.27
2018-03-11T08:05:14.727Z,4.80
2018-03-11T08:07:42.203Z,4.67
2018-03-11T08:10:09.667Z,5.00
2018-03-11T08:12:37.159Z,5.10
2018-03-11T08:15:04.623Z,5.90
2018-03-11T08:17:32.088Z,6.93
2018-03-11T08:19:59.563Z,6.03
2018-03-11T08:22:27.024Z,5.40
2018-03-11T08:24:54.503Z,3.53
2018-03-11T08:27:21.967Z,5.00
2018-03-11T08:29:49.436Z,5.83
2018-03-11T08:32:16.899Z,4.37
2018-03-11T08:34:44.377Z,4.50
2018-03-11T08:37:12.611Z,5.13
2018-03-11T08:39:40.085Z,7.20
2018-03-11T08:42:07.559Z,5.40
2018-03-11T08:44:35.796Z,3.90
2018-03-11T08:47:03.270Z,4.80
2018-03-11T08:49:30.752Z,5.50
2018-03-11T08:51:58.987Z,5.30
2018-03-11T08:54:26.466Z,5.90
2018-03-11T08:56:53.939Z,5.90
2018-03-11T08:59:21.428Z,6.33
2018-03-11T09:01:48.883Z,6.33
2018-03-11T09:04:16.368Z,4.90
2018-03-11T09:06:43.847Z,5.80
2018-03-11T09:09:11.322Z,5.50
2018-03-11T09:11:38.787Z,5.43
2018-03-11T09:14:06.260Z,6.50
2018-03-11T09:16:34.491Z,6.60
2018-03-11T09:19:01.977Z,5.57
2018-03-11T09:21:29.439Z,8.67
2018-03-11T09:23:56.917Z,8.97
2018-03-11T09:26:25.153Z,8.67
2018-03-11T09:28:53.400Z,9.30
2018-03-11T09:31:20.909Z,8.37
2018-03-11T09:33:48.379Z,8.93
2018-03-11T09:36:16.623Z,10.50
2018-03-11T09:38:44.103Z,9.83
2018-03-11T09:41:11.574Z,11.17
2018-03-11T09:43:39.991Z,10.00
2018-03-11T09:46:07.857Z,9.63
2018-03-11T09:48:35.336Z,8.63
2018-03-11T09:51:02.800Z,10.63
2018-03-11T09:53:30.279Z,10.37
2018-03-11T09:55:57.767Z,8.90
2018-03-11T09:58:26.068Z,8.70
2018-03-11T10:00:53.526Z,8.63
2018-03-11T10:03:21.003Z,9.73
2018-03-11T10:05:48.471Z,8.70
2018-03-11T10:08:15.960Z,10.13
2018-03-11T10:10:43.427Z,9.63
2018-03-11T10:13:11.696Z,9.20
2018-03-11T10:15:39.176Z,10.20
2018-03-11T10:18:06.647Z,7.80
2018-03-11T10:20:34.119Z,10.20
2018-03-11T10:23:01.584Z,8.63
2018-03-11T10:25:29.063Z,8.47
2018-03-11T10:27:56.564Z,8.63
2018-03-11T10:30:24.820Z,9.20
2018-03-11T10:32:52.292Z,8.00
2018-03-11T10:35:20.526Z,8.50
2018-03-11T10:37:47.999Z,7.43
2018-03-11T10:40:15.475Z,9.07
2018-03-11T10:42:42.944Z,6.50
2018-03-11T10:45:11.189Z,7.73
2018-03-11T10:47:38.687Z,7.60
2018-03-11T10:50:06.927Z,7.00
2018-03-11T10:52:34.396Z,6.67
2018-03-11T10:55:01.868Z,6.20
2018-03-11T10:57:30.100Z,5.90
2018-03-11T10:59:57.567Z,5.60
2018-03-11T11:02:27.627Z,5.80
2018-03-11T11:05:00.757Z,4.90
2018-03-11T11:07:28.226Z,5.50
2018-03-11T11:09:55.702Z,4.80
2018-03-11T11:12:23.175Z,3.90
2018-03-11T11:14:50.651Z,4.13
2018-03-11T11:17:18.879Z,3.50
2018-03-11T11:19:46.418Z,4.10
2018-03-11T11:22:14.288Z,3.70
2018-03-11T11:24:41.759Z,4.23
2018-03-11T11:27:09.223Z,4.70
2018-03-11T11:29:36.704Z,4.13
2018-03-11T11:32:04.172Z,3.60
2018-03-11T11:34:31.648Z,3.53
2018-03-11T11:36:59.884Z,3.03
2018-03-11T11:39:27.355Z,3.00
2018-03-11T11:41:54.829Z,2.57
2018-03-11T11:44:22.303Z,2.57
2018-03-11T11:46:50.545Z,2.90
2018-03-11T11:49:18.019Z,2.73
2018-03-11T11:51:45.503Z,3.30
2018-03-11T11:54:13.744Z,2.83
2018-03-11T11:56:41.231Z,2.50
2018-03-11T11:59:09.480Z,3.10
2018-03-11T12:01:36.939Z,3.20
2018-03-11T12:04:04.407Z,2.90
2018-03-11T12:06:31.889Z,2.90
2018-03-11T12:09:00.127Z,2.90
2018-03-11T12:11:27.599Z,4.37
2018-03-11T12:13:55.081Z,2.97
2018-03-11T12:16:23.322Z,3.20
2018-03-11T12:18:50.798Z,3.60
2018-03-11T12:21:18.267Z,5.47
2018-03-11T12:23:46.501Z,5.33
2018-03-11T12:26:13.972Z,4.17
2018-03-11T12:28:41.439Z,3.87
2018-03-11T12:31:08.914Z,4.17
2018-03-11T12:33:36.375Z,4.10
2018-03-11T12:36:03.845Z,4.27
2018-03-11T12:38:32.076Z,3.67
2018-03-11T12:40:59.591Z,4.20
2018-03-11T12:43:27.027Z,4.50
2018-03-11T12:45:54.503Z,4.67
2018-03-11T12:48:22.756Z,4.20
2018-03-11T12:50:50.232Z,5.60
2018-03-11T12:53:18.472Z,5.73
2018-03-11T12:55:45.944Z,5.80
2018-03-11T12:58:13.419Z,5.00
2018-03-11T13:00:41.696Z,4.27
2018-03-11T13:03:09.215Z,4.97
2018-03-11T13:05:36.710Z,6.57
2018-03-11T13:08:04.174Z,7.90
2018-03-11T13:10:32.422Z,4.67
2018-03-11T13:12:59.879Z,4.90
2018-03-11T13:15:27.355Z,5.73
2018-03-11T13:17:54.823Z,5.70
2018-03-11T13:20:35.012Z,5.77
2018-03-11T13:23:02.474Z,7.10
2018-03-11T13:25:29.947Z,6.07
2018-03-11T13:28:09.322Z,6.40
2018-03-11T13:30:36.800Z,7.07
2018-03-11T13:33:17.031Z,5.73
2018-03-11T13:35:44.511Z,7.00
2018-03-11T13:38:24.646Z,6.30
2018-03-11T13:40:52.082Z,7.47
2018-03-11T13:43:19.554Z,7.23
2018-03-11T13:45:58.888Z,5.90
2018-03-11T13:48:26.363Z,5.83
2018-03-11T13:50:53.875Z,3.27
2018-03-11T13:53:33.083Z,2.43
2018-03-11T13:56:01.348Z,2.60
2018-03-11T13:58:41.474Z,3.73
2018-03-11T14:04:01.815Z,2.57
2018-03-11T14:06:30.071Z,3.67
2018-03-11T14:08:57.536Z,3.20
2018-03-11T14:11:25.014Z,2.70
2018-03-11T14:13:53.243Z,2.70
2018-03-11T14:16:35.474Z,2.37
2018-03-11T14:19:02.943Z,2.57
2018-03-11T14:21:30.435Z,2.93
2018-03-11T14:23:57.927Z,3.23
2018-03-11T14:26:25.399Z,2.60
2018-03-11T14:28:52.866Z,2.83
2018-03-11T14:31:20.364Z,2.80
2018-03-11T14:33:47.976Z,2.83
2018-03-11T14:36:15.468Z,3.40
2018-03-11T14:38:43.729Z,3.47
2018-03-11T14:41:11.204Z,2.50
2018-03-11T14:43:39.451Z,2.40
2018-03-11T14:46:06.991Z,1.90
2018-03-11T14:48:35.182Z,2.00
2018-03-11T14:51:02.656Z,3.33
2018-03-11T14:53:30.123Z,4.83
2018-03-11T14:55:57.603Z,5.63
2018-03-11T14:58:25.841Z,8.00
2018-03-11T15:00:53.324Z,7.40
2018-03-11T15:03:21.577Z,8.70
2018-03-11T15:05:49.063Z,8.00
2018-03-11T15:08:17.333Z,8.50
2018-03-11T15:10:44.808Z,4.50
2018-03-11T15:13:13.087Z,4.40
2018-03-11T15:15:40.522Z,3.13
2018-03-11T15:18:07.999Z,2.90
2018-03-11T15:20:36.239Z,3.70
2018-03-11T15:23:03.742Z,4.07
2018-03-11T15:25:31.968Z,4.00
2018-03-11T15:27:59.451Z,4.77
2018-03-11T15:30:26.918Z,4.60
2018-03-11T15:32:55.156Z,4.73
2018-03-11T15:35:22.620Z,4.30
2018-03-11T15:37:50.092Z,5.20
2018-03-11T15:40:17.559Z,5.30
2018-03-11T15:42:45.045Z,4.67
2018-03-11T15:45:13.275Z,5.53
2018-03-11T15:47:40.756Z,4.90
2018-03-11T15:50:08.227Z,5.30
2018-03-11T15:52:36.473Z,9.50
2018-03-11T15:55:03.936Z,7.00
2018-03-11T15:57:31.428Z,7.80
2018-03-11T15:59:59.659Z,6.00
2018-03-11T16:02:27.137Z,4.77
2018-03-11T16:04:54.608Z,7.17
2018-03-11T16:07:22.116Z,11.60
2018-03-11T16:09:49.599Z,11.17
2018-03-11T16:12:17.083Z,11.43
2018-03-11T16:14:47.674Z,7.60
2018-03-11T16:17:15.175Z,7.47
2018-03-11T16:19:42.634Z,9.53
2018-03-11T16:22:10.134Z,12.67
2018-03-11T16:24:39.725Z,15.57
2018-03-11T16:27:05.087Z,10.87
2018-03-11T16:29:32.591Z,11.00
2018-03-11T16:32:00.093Z,8.93
2018-03-11T16:34:27.618Z,8.57
2018-03-11T16:36:55.271Z,7.30
2018-03-11T16:39:22.733Z,8.10
2018-03-11T16:41:50.208Z,7.90
2018-03-11T16:44:17.697Z,12.07
2018-03-11T16:46:45.231Z,10.70
2018-03-11T16:49:12.706Z,9.90
2018-03-11T16:51:40.189Z,10.30
2018-03-11T16:54:07.659Z,9.87
2018-03-11T16:56:35.134Z,9.50
2018-03-11T16:59:03.390Z,12.13
2018-03-11T17:01:30.879Z,11.27
2018-03-11T17:03:59.122Z,11.57
2018-03-11T17:06:26.631Z,11.23
2018-03-11T17:08:54.096Z,13.80
2018-03-11T17:11:21.579Z,14.07
2018-03-11T17:13:49.815Z,13.47
2018-03-11T17:16:17.305Z,15.27
2018-03-11T17:18:44.783Z,14.90
2018-03-11T17:21:13.026Z,18.03
2018-03-11T17:23:40.507Z,16.43
2018-03-11T17:26:07.993Z,24.70
2018-03-11T17:28:35.477Z,24.63
2018-03-11T17:31:03.727Z,23.83
2018-03-11T17:33:31.228Z,23.33
2018-03-11T17:35:58.694Z,22.07
2018-03-11T17:38:26.176Z,22.13
2018-03-11T17:40:53.656Z,16.43
2018-03-11T17:43:21.140Z,16.90
2018-03-11T17:45:49.376Z,16.00
2018-03-11T17:48:17.703Z,15.40
2018-03-11T17:50:45.181Z,21.50
2018-03-11T17:53:12.682Z,17.37
2018-03-11T17:55:40.145Z,17.00
2018-03-11T17:58:07.635Z,18.00
2018-03-11T18:00:35.895Z,18.90
2018-03-11T18:03:03.379Z,22.53
2018-03-11T18:05:30.888Z,19.83
2018-03-11T18:07:58.363Z,17.33
2018-03-11T18:10:25.833Z,15.57
2018-03-11T18:12:54.086Z,13.83
2018-03-11T18:15:21.914Z,15.87
2018-03-11T18:17:49.430Z,15.17
2018-03-11T18:20:16.903Z,13.53
2018-03-11T18:22:45.156Z,13.53
2018-03-11T18:25:12.658Z,12.80
2018-03-11T18:27:40.149Z,14.43
2018-03-11T18:30:07.628Z,13.10
2018-03-11T18:32:35.108Z,14.03
2018-03-11T18:35:02.566Z,14.93
2018-03-11T18:37:30.819Z,13.17
2018-03-11T18:39:58.294Z,12.43
2018-03-11T18:42:25.784Z,13.27
2018-03-11T18:44:53.250Z,12.57
2018-03-11T18:47:20.749Z,12.43
2018-03-11T18:49:48.235Z,12.90
2018-03-11T18:52:16.501Z,11.77
2018-03-11T18:54:43.991Z,13.30
2018-03-11T18:57:11.480Z,12.50
2018-03-11T18:59:38.972Z,12.80
2018-03-11T19:02:06.460Z,14.50
2018-03-11T19:04:34.704Z,13.27
2018-03-11T19:07:02.186Z,12.83
2018-03-11T19:09:30.425Z,13.07
2018-03-11T19:11:57.912Z,13.27
2018-03-11T19:14:26.167Z,14.50
2018-03-11T19:16:53.633Z,13.60
2018-03-11T19:19:21.123Z,12.50
2018-03-11T19:21:49.932Z,13.00
2018-03-11T19:24:17.408Z,12.77
2018-03-11T19:26:44.886Z,13.30
2018-03-11T19:29:12.411Z,11.17
2018-03-11T19:31:39.840Z,11.93
2018-03-11T19:34:08.084Z,12.50
2018-03-11T19:36:35.555Z,12.77
2018-03-11T19:39:03.036Z,11.83
2018-03-11T19:41:31.271Z,13.33
2018-03-11T19:43:58.846Z,12.30
2018-03-11T19:46:26.331Z,10.70
2018-03-11T19:48:54.583Z,12.50
2018-03-11T19:51:23.459Z,11.80
2018-03-11T19:53:51.002Z,12.17
2018-03-11T19:56:18.475Z,13.13
2018-03-11T19:58:45.966Z,12.30
2018-03-11T20:01:13.473Z,11.70
2018-03-11T20:03:40.957Z,11.37
2018-03-11T20:06:08.444Z,11.07
2018-03-11T20:08:35.929Z,10.50
2018-03-11T20:11:03.399Z,9.70
2018-03-11T20:13:30.875Z,9.40
2018-03-11T20:15:58.348Z,10.93
2018-03-11T20:18:25.822Z,9.27
2018-03-11T20:20:53.283Z,7.40
2018-03-11T20:23:20.774Z,8.20
2018-03-11T20:25:49.040Z,8.03
2018-03-11T20:28:17.283Z,8.33
2018-03-11T20:30:44.749Z,6.47
2018-03-11T20:33:12.220Z,5.77
2018-03-11T20:35:39.687Z,5.10
2018-03-11T20:38:07.932Z,4.60
2018-03-11T20:40:35.395Z,6.60
2018-03-11T20:43:02.868Z,5.40
2018-03-11T20:45:30.339Z,5.40
2018-03-11T20:47:58.603Z,5.43
2018-03-11T20:50:26.060Z,5.67
2018-03-11T20:52:53.538Z,6.17
2018-03-11T20:55:21.767Z,6.57
2018-03-11T20:57:49.239Z,5.57
2018-03-11T21:00:16.707Z,7.10
2018-03-11T21:02:44.175Z,7.30
2018-03-11T21:05:11.635Z,5.90
2018-03-11T21:07:39.814Z,6.73
2018-03-11T21:10:08.047Z,5.57
2018-03-11T21:12:35.535Z,6.37
2018-03-11T21:15:03.001Z,6.10
2018-03-11T21:17:30.463Z,6.30
2018-03-11T21:19:58.707Z,5.67
2018-03-11T21:22:26.195Z,6.13
2018-03-11T21:24:53.672Z,5.50
2018-03-11T21:27:21.899Z,6.27
2018-03-11T21:29:49.699Z,5.47
2018-03-11T21:32:17.161Z,6.57
2018-03-11T21:34:45.406Z,5.50
2018-03-11T21:37:12.874Z,6.00
2018-03-11T21:39:40.343Z,6.23
2018-03-11T21:42:07.819Z,5.60
2018-03-11T21:44:36.072Z,6.37
2018-03-11T21:47:03.538Z,5.97
2018-03-11T21:49:31.010Z,5.87
2018-03-11T21:51:59.247Z,5.73
2018-03-11T21:54:26.719Z,5.20
2018-03-11T21:56:54.200Z,5.93
2018-03-11T21:59:22.436Z,5.80
2018-03-11T22:01:49.931Z,6.30
2018-03-11T22:04:18.175Z,6.70
2018-03-11T22:06:45.648Z,6.10
2018-03-11T22:09:13.128Z,6.83
2018-03-11T22:11:41.368Z,5.70
2018-03-11T22:14:08.851Z,6.03
2018-03-11T22:16:36.319Z,6.57
2018-03-11T22:19:04.573Z,5.53
2018-03-11T22:21:32.044Z,6.43
2018-03-11T22:23:59.521Z,6.30
2018-03-11T22:26:27.760Z,6.23
2018-03-11T22:28:55.260Z,5.40
2018-03-11T22:31:23.495Z,5.63
2018-03-11T22:33:50.984Z,5.40
2018-03-11T22:36:19.231Z,6.77
2018-03-11T22:38:46.711Z,5.00
2018-03-11T22:41:14.175Z,5.60
2018-03-11T22:43:42.430Z,5.60
2018-03-11T22:46:09.903Z,5.80
2018-03-11T22:48:37.368Z,6.60
2018-03-11T22:51:05.628Z,5.37
2018-03-11T22:53:33.099Z,5.13
2018-03-11T22:56:00.563Z,5.87
2018-03-11T22:58:28.808Z,6.37
2018-03-11T23:00:56.275Z,8.33
2018-03-11T23:03:23.758Z,7.17
2018-03-11T23:05:51.992Z,6.50
2018-03-11T23:08:19.472Z,6.33
2018-03-11T23:10:46.943Z,7.87
2018-03-11T23:13:14.445Z,7.57
2018-03-11T23:15:41.912Z,7.73
2018-03-11T23:18:09.389Z,8.50
2018-03-11T23:20:36.880Z,7.37
2018-03-11T23:23:04.340Z,7.20
2018-03-11T23:25:31.831Z,7.40
2018-03-11T23:28:01.255Z,8.90
2018-03-11T23:30:28.735Z,8.07
2018-03-11T23:32:56.206Z,7.97
2018-03-11T23:35:23.682Z,8.03
2018-03-11T23:37:51.919Z,8.13
2018-03-11T23:40:19.395Z,8.00
2018-03-11T23:42:46.868Z,8.60
2018-03-11T23:45:14.347Z,8.23
2018-03-11T23:47:42.567Z,6.90
2018-03-11T23:50:10.071Z,7.20
2018-03-11T23:52:38.306Z,8.60
2018-03-11T23:55:05.789Z,8.47
2018-03-11T23:57:33.239Z,7.47
